Time;durP1;ratioP1;P1;durP2;ratioP2;P2;SDS_P1;SDS_P2;PMS_P1;PMS_P2;Temp;Humidity;BMP_temperature;BMP_pressure;BME280_temperature;BME280_humidity;BME280_pressure;Samples;Min_cycle;Max_cycle;Signal;HPM_P1;HPM_P2
2022/12/27 00:01:44;;;;;;;11.13;1.60;;;3.40;99.90;;;;;;5002641;28;20041;-88
2022/12/27 00:04:10;;;;;;;4.15;1.27;;;3.70;99.90;;;;;;5007321;28;20037;-89
2022/12/27 00:06:36;;;;;;;7.88;1.55;;;3.50;99.90;;;;;;5025540;28;20095;-89
2022/12/27 00:09:03;;;;;;;9.52;1.27;;;3.60;99.90;;;;;;5013674;28;20044;-89
2022/12/27 00:11:29;;;;;;;5.75;1.30;;;3.50;99.90;;;;;;5005896;28;20049;-89
2022/12/27 00:13:57;;;;;;;;;;;2.70;99.90;;;;;;5004466;28;20041;-89
2022/12/27 00:16:23;;;;;;;6.35;1.50;;;4.70;99.90;;;;;;5010568;28;19996;-89
2022/12/27 00:18:49;;;;;;;9.68;1.50;;;3.50;99.90;;;;;;5008086;28;20147;-89
2022/12/27 00:21:16;;;;;;;1.88;1.00;;;3.60;99.90;;;;;;5004033;28;20049;-88
2022/12/27 00:23:45;;;;;;;6.45;1.55;;;3.50;99.90;;;;;;5019582;28;20506;-89
2022/12/27 00:26:24;;;;;;;6.05;1.40;;;3.50;99.90;;;;;;5022570;28;20099;-89
2022/12/27 00:28:50;;;;;;;7.35;1.38;;;4.20;99.90;;;;;;5017338;28;20441;-88
2022/12/27 00:31:16;;;;;;;4.32;1.77;;;3.50;99.90;;;;;;5016133;28;20029;-89
2022/12/27 00:33:45;;;;;;;7.82;1.70;;;4.70;99.90;;;;;;5030754;28;20087;-88
2022/12/27 00:36:23;;;;;;;9.35;2.22;;;4.00;99.90;;;;;;5008440;28;20030;-89
2022/12/27 00:38:49;;;;;;;7.45;1.85;;;3.50;99.90;;;;;;5001722;28;20042;-89
2022/12/27 00:41:16;;;;;;;11.02;1.67;;;3.50;99.90;;;;;;4994941;28;20099;-88
2022/12/27 00:43:42;;;;;;;6.38;1.55;;;3.50;99.90;;;;;;5013314;28;20083;-87
2022/12/27 00:46:08;;;;;;;9.07;2.17;;;4.30;99.90;;;;;;4989694;28;20128;-88
2022/12/27 00:48:34;;;;;;;;;;;3.60;99.90;;;;;;4992206;28;20037;-89
2022/12/27 00:51:06;;;;;;;4.43;1.30;;;4.90;99.90;;;;;;5001720;28;19935;-89
2022/12/27 00:53:33;;;;;;;5.32;1.52;;;3.70;99.90;;;;;;5001319;28;20041;-89
2022/12/27 00:55:59;;;;;;;5.25;1.58;;;5.00;99.90;;;;;;5004404;28;20044;-89
2022/12/27 00:58:25;;;;;;;6.03;1.85;;;3.70;99.90;;;;;;5010362;28;20098;-89
2022/12/27 01:00:51;;;;;;;2.05;1.40;;;3.70;99.90;;;;;;4987387;28;20168;-88
2022/12/27 01:03:18;;;;;;;4.15;1.70;;;5.40;99.90;;;;;;4981596;28;20034;-90
2022/12/27 01:05:44;;;;;;;3.70;1.25;;;4.50;99.90;;;;;;4986070;28;20037;-90
2022/12/27 01:08:10;;;;;;;5.75;1.45;;;4.10;99.90;;;;;;4998194;28;20087;-90
2022/12/27 01:10:39;;;;;;;4.30;1.60;;;3.70;99.90;;;;;;5003417;28;20033;-90
2022/12/27 01:13:05;;;;;;;10.90;1.70;;;3.70;99.90;;;;;;4999937;28;20440;-90
2022/12/27 01:15:31;;;;;;;8.77;1.85;;;3.80;99.90;;;;;;5021543;28;20080;-90
2022/12/27 01:17:57;;;;;;;6.63;1.55;;;5.40;99.90;;;;;;5021442;28;20050;-90
2022/12/27 01:20:22;;;;;;;6.65;1.85;;;3.90;99.90;;;;;;4990144;28;20034;-90
2022/12/27 01:22:48;;;;;;;8.10;2.20;;;4.20;99.90;;;;;;4993948;28;20034;-90
2022/12/27 01:25:14;;;;;;;7.05;1.52;;;3.90;99.90;;;;;;5014521;28;20056;-90
2022/12/27 01:27:39;;;;;;;3.67;1.20;;;5.20;99.90;;;;;;4999506;28;20029;-91
2022/12/27 01:30:07;;;;;;;7.07;1.47;;;4.20;99.90;;;;;;5011327;28;20108;-90
2022/12/27 01:32:33;;;;;;;7.90;1.42;;;4.00;99.90;;;;;;5007892;28;20689;-89
2022/12/27 01:34:59;;;;;;;11.75;1.52;;;4.20;99.90;;;;;;4996511;28;20037;-89
2022/12/27 01:37:27;;;;;;;6.97;1.40;;;4.20;99.90;;;;;;5024986;28;20034;-89
2022/12/27 01:39:53;;;;;;;5.40;1.40;;;4.20;99.90;;;;;;4984050;28;20041;-89
2022/12/27 01:45:11;;;;;;;3.80;1.20;;;4.20;99.90;;;;;;5018589;28;20057;-89
2022/12/27 01:47:47;;;;;;;4.10;1.02;;;4.30;99.90;;;;;;5015856;28;20045;-89
2022/12/27 01:50:19;;;;;;;6.00;1.10;;;5.70;99.90;;;;;;5010324;28;20530;-90
2022/12/27 01:53:09;;;;;;;5.47;1.67;;;4.60;99.90;;;;;;5004609;28;20124;-90
2022/12/27 01:55:46;;;;;;;6.80;1.15;;;4.60;99.90;;;;;;5004598;28;20041;-89
2022/12/27 01:58:15;;;;;;;;;;;4.70;99.90;;;;;;5011949;28;20029;-89
2022/12/27 02:00:43;;;;;;;11.30;1.33;;;4.70;99.90;;;;;;5002438;28;19921;-89
2022/12/27 02:03:10;;;;;;;6.00;1.30;;;6.00;99.90;;;;;;5001398;28;20045;-89
2022/12/27 02:05:40;;;;;;;6.53;1.17;;;5.30;99.90;;;;;;4991915;28;20034;-89
2022/12/27 02:08:27;;;;;;;6.53;1.63;;;4.80;99.90;;;;;;5009468;28;20112;-90
2022/12/27 02:10:54;;;;;;;5.35;1.20;;;4.80;99.90;;;;;;5002614;28;20038;-89
2022/12/27 02:13:20;;;;;;;7.05;1.40;;;5.70;99.90;;;;;;4989368;28;20049;-89
2022/12/27 02:15:46;;;;;;;6.07;1.95;;;5.60;99.90;;;;;;5006795;28;20069;-89
2022/12/27 02:18:12;;;;;;;5.13;1.45;;;4.60;99.90;;;;;;4988197;28;20041;-90
2022/12/27 02:20:50;;;;;;;11.18;1.98;;;4.50;99.90;;;;;;5003161;28;20120;-89
2022/12/27 02:26:36;;;;;;;4.97;1.35;;;4.40;99.90;;;;;;5014768;28;20054;-88
2022/12/27 02:29:20;;;;;;;7.32;1.23;;;4.30;99.90;;;;;;5003796;28;20037;-88
2022/12/27 02:32:03;;;;;;;7.63;1.60;;;4.30;99.90;;;;;;5027021;28;20077;-88
2022/12/27 02:34:35;;;;;;;5.30;1.40;;;4.30;99.90;;;;;;5017510;28;20104;-88
2022/12/27 02:37:07;;;;;;;8.27;1.63;;;4.90;99.90;;;;;;5013397;28;20448;-88
2022/12/27 02:39:37;;;;;;;7.78;1.60;;;5.50;99.90;;;;;;5005865;28;20462;-88
2022/12/27 02:53:21;;;;;;;9.82;2.47;;;4.30;99.90;;;;;;5006007;28;20505;-89
2022/12/27 02:59:10;;;;;;;9.38;1.45;;;4.40;99.90;;;;;;5030427;28;20060;-89
2022/12/27 03:04:37;;;;;;;9.35;1.77;;;4.20;99.90;;;;;;5033995;28;20041;-86
2022/12/27 03:07:09;;;;;;;3.50;1.40;;;4.20;99.90;;;;;;5017933;28;20034;-88
2022/12/27 03:16:54;;;;;;;7.03;1.60;;;4.20;99.90;;;;;;5027106;28;20133;-89
2022/12/27 03:25:28;;;;;;;8.05;1.95;;;4.10;99.90;;;;;;5024566;28;20077;-89
2022/12/27 03:34:31;;;;;;;6.80;1.35;;;4.20;99.90;;;;;;5023563;28;20164;-89
2022/12/27 03:40:06;;;;;;;5.78;1.63;;;5.70;99.90;;;;;;5016853;28;20068;-89
2022/12/27 03:46:32;;;;;;;7.25;1.60;;;4.40;99.90;;;;;;5031442;28;20448;-89
2022/12/27 03:48:12;;;;;;;6.13;1.42;;;4.60;99.90;;;;;;5007815;28;20502;-89
2022/12/27 03:50:47;;;;;;;4.82;1.33;;;4.50;99.90;;;;;;5007518;28;20072;-90
2022/12/27 03:53:34;;;;;;;4.57;1.25;;;4.50;99.90;;;;;;5018653;28;20041;-90
2022/12/27 03:56:00;;;;;;;10.75;1.63;;;4.80;99.90;;;;;;5004671;28;20040;-89
2022/12/27 03:58:25;;;;;;;5.72;1.50;;;5.80;99.90;;;;;;5010621;28;20026;-90
2022/12/27 04:00:51;;;;;;;4.73;2.10;;;4.50;99.90;;;;;;5011097;28;20034;-88
2022/12/27 04:03:17;;;;;;;6.40;1.53;;;4.70;99.90;;;;;;5006899;28;20300;-89
2022/12/27 04:05:42;;;;;;;5.53;1.43;;;5.30;99.90;;;;;;4988106;28;20064;-89
2022/12/27 04:35:33;;;;;;;6.25;1.55;;;5.30;99.90;;;;;;5009816;28;20049;-89
2022/12/27 04:37:58;;;;;;;7.90;1.30;;;4.30;99.90;;;;;;5004082;28;20033;-89
2022/12/27 04:57:04;;;;;;;7.25;2.60;;;4.30;99.90;;;;;;5021245;28;20064;-89
2022/12/27 05:02:17;;;;;;;4.93;1.52;;;4.20;99.90;;;;;;5014564;28;20054;-88
2022/12/27 05:04:43;;;;;;;14.55;1.85;;;4.10;99.90;;;;;;5004779;28;20039;-89
2022/12/27 05:15:25;;;;;;;7.70;1.73;;;4.00;99.90;;;;;;5012644;28;20042;-89
2022/12/27 05:17:51;;;;;;;12.75;1.73;;;3.90;99.90;;;;;;5020007;28;20053;-89
2022/12/27 05:20:17;;;;;;;8.65;1.90;;;3.90;99.90;;;;;;4996135;28;20053;-88
2022/12/27 05:25:37;;;;;;;7.90;1.90;;;4.10;99.90;;;;;;5009691;28;20113;-89
2022/12/27 05:28:05;;;;;;;10.52;1.60;;;4.10;99.90;;;;;;4990871;28;20045;-89
2022/12/27 05:30:41;;;;;;;4.65;1.23;;;4.00;99.90;;;;;;5017391;28;20513;-89
2022/12/27 05:33:07;;;;;;;7.00;1.33;;;4.00;99.90;;;;;;5014483;28;20073;-89
2022/12/27 05:35:33;;;;;;;7.50;1.52;;;4.00;99.90;;;;;;5029165;28;20038;-89
2022/12/27 05:38:00;;;;;;;4.10;1.30;;;4.40;99.90;;;;;;5008288;28;20110;-89
2022/12/27 05:40:25;;;;;;;8.40;1.73;;;3.90;99.90;;;;;;4994239;28;20117;-89
2022/12/27 05:42:52;;;;;;;6.45;1.35;;;3.90;99.90;;;;;;5005172;28;20111;-89
2022/12/27 05:45:18;;;;;;;9.52;1.27;;;3.90;99.90;;;;;;5005008;28;20037;-89
2022/12/27 05:47:44;;;;;;;;;;;4.40;99.90;;;;;;5006243;28;20037;-89
2022/12/27 05:50:10;;;;;;;8.00;2.10;;;3.80;99.90;;;;;;4997633;28;19967;-89
2022/12/27 05:52:36;;;;;;;4.35;1.30;;;4.80;99.90;;;;;;4999549;28;20046;-90
2022/12/27 05:55:02;;;;;;;11.80;2.65;;;3.80;99.90;;;;;;5000452;28;20391;-89
2022/12/27 05:57:28;;;;;;;5.53;1.30;;;3.70;99.90;;;;;;4986023;28;20033;-88
2022/12/27 05:59:53;;;;;;;7.10;1.42;;;5.50;99.90;;;;;;4989782;28;20129;-89
2022/12/27 06:02:19;;;;;;;7.50;1.63;;;3.60;99.90;;;;;;5004613;28;20436;-89
2022/12/27 06:04:45;;;;;;;6.93;1.27;;;3.50;99.90;;;;;;4994348;28;20293;-89
2022/12/27 06:07:12;;;;;;;5.68;1.48;;;3.50;99.90;;;;;;5001859;28;20056;-89
2022/12/27 06:09:41;;;;;;;9.30;1.73;;;3.50;99.90;;;;;;5034477;28;20037;-89
2022/12/27 06:12:07;;;;;;;4.78;1.77;;;4.90;99.90;;;;;;5011693;28;20040;-89
2022/12/27 06:14:33;;;;;;;8.40;1.52;;;3.40;99.90;;;;;;4995602;28;20391;-90
2022/12/27 06:16:59;;;;;;;12.07;2.45;;;3.40;99.90;;;;;;5012286;28;20060;-89
2022/12/27 06:19:25;;;;;;;7.50;1.63;;;3.40;99.90;;;;;;5028159;28;20041;-89
2022/12/27 06:21:50;;;;;;;12.70;3.78;;;3.40;99.90;;;;;;5012936;28;20037;-89
2022/12/27 06:24:16;;;;;;;10.02;2.55;;;5.20;99.90;;;;;;5019967;28;20044;-90
2022/12/27 06:26:42;;;;;;;7.30;1.50;;;3.40;99.90;;;;;;5005429;28;20046;-89
2022/12/27 06:29:10;;;;;;;8.63;1.70;;;3.40;99.90;;;;;;4985340;28;20080;-90
2022/12/27 06:31:36;;;;;;;10.55;1.73;;;3.40;99.90;;;;;;4990103;28;20033;-90
2022/12/27 06:34:02;;;;;;;11.13;1.92;;;3.30;99.90;;;;;;5019160;28;20052;-90
2022/12/27 06:36:29;;;;;;;9.32;2.50;;;3.30;99.90;;;;;;5027885;28;20033;-89
2022/12/27 06:38:56;;;;;;;7.03;1.42;;;3.40;99.90;;;;;;5017773;28;20033;-90
2022/12/27 06:41:22;;;;;;;5.40;1.90;;;3.20;99.90;;;;;;5009145;28;20076;-89
2022/12/27 06:43:52;;;;;;;10.55;2.17;;;4.90;99.90;;;;;;5007575;28;20249;-90
2022/12/27 06:46:17;;;;;;;8.82;2.08;;;4.20;99.90;;;;;;5018306;28;20065;-90
2022/12/27 06:48:47;;;;;;;7.13;1.90;;;3.20;99.90;;;;;;5015621;28;20087;-90
2022/12/27 06:51:15;;;;;;;5.15;1.33;;;3.10;99.90;;;;;;5006499;28;20477;-90
2022/12/27 06:53:41;;;;;;;13.32;1.92;;;;;;;;;;5004094;28;20042;-90
2022/12/27 06:56:18;;;;;;;9.25;1.73;;;3.10;99.90;;;;;;5008045;28;20136;-90
2022/12/27 06:58:45;;;;;;;7.88;1.77;;;3.10;99.90;;;;;;5024943;28;20398;-89
2022/12/27 07:01:13;;;;;;;6.22;1.67;;;3.10;99.90;;;;;;5003514;28;20120;-89
2022/12/27 07:03:39;;;;;;;11.57;2.33;;;3.10;99.90;;;;;;5008025;28;20049;-89
2022/12/27 07:06:07;;;;;;;5.68;1.92;;;3.10;99.90;;;;;;4994759;28;20482;-90
2022/12/27 07:08:34;;;;;;;9.90;1.80;;;3.10;99.90;;;;;;5007955;28;20133;-89
2022/12/27 07:11:02;;;;;;;5.90;1.80;;;4.60;99.90;;;;;;5016099;28;20071;-89
2022/12/27 07:13:33;;;;;;;7.38;1.50;;;3.10;99.90;;;;;;5021844;28;20033;-89
2022/12/27 07:15:58;;;;;;;12.48;2.60;;;4.20;99.90;;;;;;5003043;28;20108;-90
2022/12/27 07:18:24;;;;;;;12.65;1.80;;;4.80;99.90;;;;;;5012794;28;20041;-90
2022/12/27 07:20:50;;;;;;;5.55;1.58;;;3.20;99.90;;;;;;4996806;28;20120;-89
2022/12/27 07:23:15;;;;;;;5.43;1.70;;;3.10;99.90;;;;;;5009793;28;20038;-89
2022/12/27 07:25:41;;;;;;;8.23;2.15;;;4.10;99.90;;;;;;5012326;28;20387;-89
2022/12/27 07:28:07;;;;;;;9.93;1.83;;;3.40;99.90;;;;;;4991718;28;20033;-89
2022/12/27 07:30:33;;;;;;;6.47;1.70;;;4.30;99.90;;;;;;4993773;28;20311;-88
2022/12/27 07:32:58;;;;;;;13.20;2.00;;;3.10;99.90;;;;;;4987813;28;20139;-89
2022/12/27 07:35:24;;;;;;;12.93;3.00;;;3.10;99.90;;;;;;4990809;28;20026;-89
2022/12/27 07:37:50;;;;;;;5.47;1.83;;;3.10;99.90;;;;;;4990370;28;20311;-89
2022/12/27 07:40:16;;;;;;;8.05;1.77;;;3.20;99.90;;;;;;5010602;28;20088;-89
2022/12/27 07:42:41;;;;;;;6.68;2.30;;;3.20;99.90;;;;;;5005221;28;20034;-88
2022/12/27 07:45:07;;;;;;;9.87;1.77;;;4.70;99.90;;;;;;4991261;28;20042;-89
2022/12/27 07:47:33;;;;;;;7.45;1.58;;;3.20;99.90;;;;;;5009776;28;20282;-89
2022/12/27 07:49:59;;;;;;;9.90;2.00;;;3.30;99.90;;;;;;4981465;28;20090;-89
2022/12/27 07:52:25;;;;;;;8.15;2.38;;;3.30;99.90;;;;;;5024608;28;20088;-88
2022/12/27 07:54:51;;;;;;;6.03;1.70;;;3.90;99.90;;;;;;4997478;28;20037;-89
2022/12/27 07:57:17;;;;;;;5.85;2.08;;;3.30;99.90;;;;;;4995687;28;20128;-89
2022/12/27 07:59:43;;;;;;;8.00;1.70;;;3.20;99.90;;;;;;5027407;28;20144;-89
2022/12/27 08:02:09;;;;;;;9.25;1.75;;;4.50;99.90;;;;;;5006815;28;20303;-89
2022/12/27 08:04:37;;;;;;;4.15;1.40;;;3.20;99.90;;;;;;5011265;28;20038;-89
2022/12/27 08:07:15;;;;;;;8.75;1.77;;;4.90;99.90;;;;;;4990258;28;20087;-86
2022/12/27 08:09:43;;;;;;;7.40;2.13;;;4.50;99.90;;;;;;5027023;28;20047;-86
2022/12/27 08:12:09;;;;;;;6.32;1.70;;;3.40;99.90;;;;;;5028037;28;20164;-85
2022/12/27 08:14:35;;;;;;;6.88;1.58;;;3.40;99.90;;;;;;5021469;28;20099;-87
2022/12/27 08:17:26;;;;;;;8.27;1.83;;;3.40;99.90;;;;;;5001969;28;20445;-86
2022/12/27 08:19:53;;;;;;;8.80;2.58;;;3.40;99.90;;;;;;5007730;28;20276;-86
2022/12/27 08:22:20;;;;;;;11.25;2.03;;;3.40;99.90;;;;;;5026995;28;20679;-86
2022/12/27 08:24:47;;;;;;;9.50;1.80;;;3.30;99.90;;;;;;4997346;28;20042;-85
2022/12/27 08:27:20;;;;;;;8.52;1.88;;;3.60;99.90;;;;;;5026422;28;20046;-86
2022/12/27 08:29:46;;;;;;;10.63;2.13;;;4.40;99.90;;;;;;5001831;28;20037;-86
2022/12/27 08:32:12;;;;;;;8.68;2.72;;;3.60;99.90;;;;;;4999855;28;20038;-86
2022/12/27 08:34:37;;;;;;;8.77;1.90;;;4.50;99.90;;;;;;4990148;28;20037;-86
2022/12/27 08:37:03;;;;;;;10.00;1.88;;;5.30;99.90;;;;;;5009803;28;20034;-85
2022/12/27 08:39:29;;;;;;;7.78;1.88;;;6.00;99.90;;;;;;5016055;28;20030;-86
2022/12/27 08:41:55;;;;;;;5.65;1.60;;;4.80;99.90;;;;;;5007144;28;20497;-88
2022/12/27 08:44:21;;;;;;;10.60;1.63;;;5.30;99.90;;;;;;5024232;28;20071;-87
2022/12/27 08:46:47;;;;;;;;;;;5.40;99.90;;;;;;5004250;28;20037;-86
2022/12/27 08:49:13;;;;;;;11.80;1.77;;;5.70;99.90;;;;;;5022420;28;20012;-87
2022/12/27 08:51:38;;;;;;;9.93;2.20;;;5.90;99.90;;;;;;5009329;28;20136;-84
2022/12/27 08:54:04;;;;;;;9.60;2.10;;;6.30;99.90;;;;;;5020889;28;20288;-88
2022/12/27 08:56:30;;;;;;;8.43;1.90;;;6.50;99.90;;;;;;5002871;28;20301;-87
2022/12/27 08:58:56;;;;;;;7.28;1.70;;;6.80;99.90;;;;;;5001394;28;20053;-87
2022/12/27 09:01:22;;;;;;;5.67;1.47;;;7.00;99.90;;;;;;4985378;28;20037;-86
2022/12/27 09:03:47;;;;;;;11.98;1.95;;;7.30;99.90;;;;;;5024301;28;20292;-87
2022/12/27 09:06:20;;;;;;;9.60;1.95;;;7.50;99.90;;;;;;5005938;28;20067;-87
2022/12/27 09:08:48;;;;;;;12.77;2.20;;;7.70;99.90;;;;;;5016900;28;20124;-85
2022/12/27 09:11:17;;;;;;;6.72;1.50;;;7.50;99.90;;;;;;5021486;28;20077;-87
2022/12/27 09:13:44;;;;;;;6.57;1.58;;;7.30;99.90;;;;;;5008899;28;20046;-88
2022/12/27 09:16:12;;;;;;;8.27;1.63;;;6.90;99.90;;;;;;5001950;28;20498;-87
2022/12/27 09:18:39;;;;;;;8.07;2.05;;;6.60;99.90;;;;;;5021434;28;20064;-88
2022/12/27 09:21:11;;;;;;;9.90;1.67;;;6.80;99.90;;;;;;5007688;28;20100;-86
2022/12/27 09:23:37;;;;;;;9.35;1.52;;;7.10;99.90;;;;;;5022132;28;20116;-89
2022/12/27 09:26:05;;;;;;;7.07;1.77;;;7.40;99.90;;;;;;4986905;28;20045;-88
2022/12/27 09:28:31;;;;;;;9.02;1.90;;;7.60;99.90;;;;;;5009698;28;20041;-90
2022/12/27 09:30:56;;;;;;;8.75;2.50;;;7.70;99.90;;;;;;5029624;28;20041;-88
2022/12/27 09:33:22;;;;;;;7.90;2.35;;;8.10;99.90;;;;;;5024591;28;20042;-87
2022/12/27 09:35:48;;;;;;;6.28;1.73;;;8.30;99.90;;;;;;4991522;28;20032;-88
2022/12/27 09:38:13;;;;;;;9.67;1.73;;;8.30;99.90;;;;;;4991533;28;20120;-88
2022/12/27 09:40:49;;;;;;;4.90;1.37;;;8.20;99.90;;;;;;4998900;28;20280;-89
2022/12/27 09:43:17;;;;;;;7.13;1.65;;;8.20;99.90;;;;;;5006688;28;20627;-87
2022/12/27 09:45:49;;;;;;;5.30;1.45;;;8.30;99.90;;;;;;4990866;28;20067;-91
2022/12/27 09:48:34;;;;;;;8.10;1.80;;;8.40;99.90;;;;;;5025011;28;20092;-84
2022/12/27 09:51:13;;;;;;;6.15;1.65;;;8.40;99.90;;;;;;5015930;28;20034;-84
2022/12/27 09:53:44;;;;;;;8.65;1.60;;;8.40;99.90;;;;;;5023226;28;20038;-83
2022/12/27 09:56:22;;;;;;;9.32;1.67;;;8.50;99.90;;;;;;5022162;28;20041;-84
2022/12/27 09:58:53;;;;;;;10.45;1.85;;;8.90;99.90;;;;;;5005443;28;20041;-84
2022/12/27 10:01:25;;;;;;;9.50;1.95;;;9.20;99.90;;;;;;5026849;28;20505;-83
2022/12/27 10:03:52;;;;;;;8.77;1.65;;;9.50;99.90;;;;;;5004210;28;20125;-84
2022/12/27 10:06:39;;;;;;;7.35;1.70;;;10.00;99.90;;;;;;5011585;28;20052;-86
2022/12/27 10:09:20;;;;;;;7.57;1.30;;;10.30;99.90;;;;;;5021696;28;20038;-87
2022/12/27 10:12:03;;;;;;;10.07;2.03;;;10.80;99.90;;;;;;5024190;28;20088;-85
2022/12/27 10:18:12;;;;;;;7.53;1.95;;;11.30;99.90;;;;;;5011765;28;20061;-86
2022/12/27 10:21:16;;;;;;;11.15;1.67;;;11.70;99.90;;;;;;5025618;28;20179;-86
2022/12/27 10:23:46;;;;;;;9.20;1.55;;;12.00;99.90;;;;;;5005457;28;20037;-87
2022/12/27 10:26:21;;;;;;;6.00;1.83;;;12.10;99.90;;;;;;5033522;28;20048;-87
2022/12/27 10:28:59;;;;;;;6.20;1.50;;;12.30;99.90;;;;;;5006279;28;20037;-86
2022/12/27 10:31:26;;;;;;;6.57;1.83;;;12.40;99.90;;;;;;5000420;28;20486;-86
2022/12/27 10:33:53;;;;;;;8.20;1.83;;;12.20;99.90;;;;;;5016119;28;20703;-85
2022/12/27 10:36:22;;;;;;;6.72;2.03;;;12.40;99.90;;;;;;5028033;28;20042;-87
2022/12/27 10:38:48;;;;;;;9.32;1.88;;;12.20;99.90;;;;;;5035518;28;20089;-85
2022/12/27 10:41:28;;;;;;;6.68;1.90;;;12.00;99.90;;;;;;5010405;28;20045;-86
2022/12/27 10:43:54;;;;;;;6.25;1.80;;;11.90;99.90;;;;;;5025989;28;20061;-86
2022/12/27 10:46:29;;;;;;;6.68;1.92;;;11.40;99.90;;;;;;5024702;28;20034;-86
2022/12/27 10:48:59;;;;;;;6.75;1.55;;;11.20;99.90;;;;;;5013576;28;20536;-86
2022/12/27 10:51:32;;;;;;;6.30;1.45;;;10.80;99.90;;;;;;5013926;28;20069;-86
2022/12/27 10:54:12;;;;;;;6.00;1.65;;;10.60;99.90;;;;;;5023065;28;20069;-86
2022/12/27 10:56:40;;;;;;;5.30;1.40;;;10.80;99.90;;;;;;5003647;28;20046;-87
2022/12/27 10:59:26;;;;;;;8.55;1.77;;;11.40;99.90;;;;;;5007931;28;20038;-85
2022/12/27 11:02:01;;;;;;;4.97;1.83;;;11.90;99.90;;;;;;5019380;28;20038;-86
2022/12/27 11:04:29;;;;;;;10.77;2.13;;;12.50;99.90;;;;;;4999978;28;20101;-86
2022/12/27 11:07:01;;;;;;;7.07;1.98;;;13.00;99.90;;;;;;5018643;28;20117;-87
2022/12/27 11:09:44;;;;;;;6.57;1.67;;;13.20;99.90;;;;;;5018039;28;20112;-87
2022/12/27 11:12:18;;;;;;;6.47;1.48;;;13.30;99.90;;;;;;5011710;28;20105;-87
2022/12/27 11:15:03;;;;;;;9.02;1.48;;;13.60;99.90;;;;;;4997427;28;20536;-87
2022/12/27 11:17:36;;;;;;;7.00;1.50;;;13.60;99.90;;;;;;5018801;28;20084;-86
2022/12/27 11:20:17;;;;;;;5.95;1.30;;;13.60;99.90;;;;;;5019250;28;20088;-86
2022/12/27 11:22:53;;;;;;;6.00;1.23;;;13.50;99.90;;;;;;5021007;28;20048;-78
2022/12/27 11:25:20;;;;;;;6.55;1.50;;;13.30;99.90;;;;;;5005545;28;20037;-78
2022/12/27 11:27:49;;;;;;;12.15;1.42;;;13.50;99.90;;;;;;5010268;28;20033;-78
2022/12/27 11:30:31;;;;;;;6.20;1.77;;;13.40;99.90;;;;;;5024115;28;20382;-78
2022/12/27 11:33:02;;;;;;;5.20;1.50;;;12.90;99.90;;;;;;5014072;28;20493;-78
2022/12/27 11:35:28;;;;;;;10.50;1.55;;;12.00;99.90;;;;;;5003749;28;20037;-78
2022/12/27 11:37:54;;;;;;;11.70;2.13;;;11.50;99.90;;;;;;4998606;28;20037;-78
2022/12/27 11:40:33;;;;;;;7.93;1.40;;;11.90;99.90;;;;;;4996008;28;20470;-78
2022/12/27 11:43:14;;;;;;;5.53;1.35;;;12.60;99.90;;;;;;5017891;28;20095;-78
2022/12/27 11:45:48;;;;;;;9.95;1.60;;;13.30;99.90;;;;;;5006278;28;20045;-78
2022/12/27 11:48:37;;;;;;;11.43;2.00;;;13.40;99.90;;;;;;5019959;28;20505;-78
2022/12/27 11:51:36;;;;;;;10.02;1.55;;;13.60;99.90;;;;;;4996982;28;20541;-77
2022/12/27 11:54:11;;;;;;;9.02;1.75;;;13.70;99.90;;;;;;4988588;28;20058;-78
2022/12/27 11:56:46;;;;;;;11.05;1.83;;;13.60;99.90;;;;;;4995467;28;20038;-78
2022/12/27 11:59:21;;;;;;;8.18;1.60;;;13.40;99.90;;;;;;5013711;28;20490;-78
2022/12/27 12:02:24;;;;;;;9.02;2.15;;;13.50;99.90;;;;;;5018196;28;20044;-78
2022/12/27 12:05:17;;;;;;;9.98;1.55;;;13.60;99.90;;;;;;4991478;28;20040;-79
2022/12/27 12:08:05;;;;;;;10.63;1.77;;;13.40;99.90;;;;;;5017702;28;20497;-78
2022/12/27 12:11:03;;;;;;;9.77;1.70;;;13.10;99.90;;;;;;4994578;28;20493;-79
2022/12/27 12:13:47;;;;;;;5.10;1.38;;;13.10;99.90;;;;;;4971447;28;20057;-78
2022/12/27 12:16:58;;;;;;;8.73;1.33;;;13.30;99.90;;;;;;5008369;28;20122;-79
2022/12/27 12:19:31;;;;;;;7.18;1.65;;;13.30;99.90;;;;;;4952400;28;20563;-77
2022/12/27 12:22:35;;;;;;;9.07;1.55;;;13.40;99.90;;;;;;5020447;28;20050;-78
2022/12/27 12:25:07;;;;;;;7.47;1.80;;;13.70;99.90;;;;;;4946227;28;20042;-77
2022/12/27 12:27:49;;;;;;;6.05;1.85;;;14.00;99.90;;;;;;4948371;28;20504;-77
2022/12/27 12:30:44;;;;;;;7.97;1.90;;;13.90;99.90;;;;;;4974475;28;20142;-77
2022/12/27 12:34:03;;;;;;;4.82;1.55;;;13.40;99.90;;;;;;5008932;28;20148;-77
2022/12/27 12:37:04;;;;;;;4.60;1.63;;;12.90;99.90;;;;;;4926214;29;20046;-79
2022/12/27 12:40:16;;;;;;;6.88;1.55;;;12.70;99.90;;;;;;5010113;28;20056;-79
2022/12/27 12:42:54;;;;;;;8.82;1.60;;;12.80;99.90;;;;;;5009574;28;20034;-78
2022/12/27 12:46:04;;;;;;;4.68;1.48;;;12.20;99.90;;;;;;5004579;28;20041;-79
2022/12/27 12:48:46;;;;;;;8.80;1.60;;;11.60;99.90;;;;;;4989727;28;20084;-78
2022/12/27 12:51:45;;;;;;;4.00;1.42;;;11.10;99.90;;;;;;4992940;28;20048;-77
2022/12/27 12:54:37;;;;;;;5.68;1.75;;;10.60;99.90;;;;;;5012045;28;20073;-79
2022/12/27 12:57:33;;;;;;;6.13;1.80;;;10.30;99.90;;;;;;5001661;28;20088;-79
2022/12/27 13:00:11;;;;;;;8.43;1.38;;;9.90;99.90;;;;;;5012961;28;20041;-79
2022/12/27 13:02:57;;;;;;;9.68;1.63;;;9.60;99.90;;;;;;4998499;28;20099;-79
2022/12/27 13:05:48;;;;;;;5.18;1.83;;;9.40;99.90;;;;;;5002920;28;20807;-79
2022/12/27 13:08:18;;;;;;;7.18;1.75;;;9.20;99.90;;;;;;5018192;28;20552;-79
2022/12/27 13:11:19;;;;;;;6.80;1.48;;;9.10;99.90;;;;;;5015246;28;20037;-79
2022/12/27 13:14:04;;;;;;;5.13;1.42;;;8.90;99.90;;;;;;4991374;28;20125;-79
2022/12/27 13:16:42;;;;;;;5.50;1.40;;;8.80;99.90;;;;;;5018093;28;20081;-84
2022/12/27 13:19:26;;;;;;;5.72;1.73;;;8.90;99.90;;;;;;5020634;28;20122;-86
2022/12/27 13:22:14;;;;;;;5.88;1.33;;;8.70;99.90;;;;;;5014435;28;21574;-86
2022/12/27 13:25:04;;;;;;;5.97;1.52;;;8.70;99.90;;;;;;5011144;28;20042;-86
2022/12/27 13:27:51;;;;;;;6.05;1.70;;;8.70;99.90;;;;;;5015714;28;20173;-86
2022/12/27 13:30:46;;;;;;;9.45;1.55;;;8.70;99.90;;;;;;4993250;28;20041;-86
2022/12/27 13:33:21;;;;;;;8.80;1.50;;;8.60;99.90;;;;;;5004231;28;20038;-86
2022/12/27 13:36:11;;;;;;;4.40;1.15;;;8.50;99.90;;;;;;5017612;28;20108;-85
2022/12/27 13:39:01;;;;;;;6.82;1.50;;;8.40;99.90;;;;;;4999526;28;20042;-86
2022/12/27 13:41:52;;;;;;;8.23;1.50;;;8.40;99.90;;;;;;5021728;28;20046;-85
2022/12/27 13:44:44;;;;;;;11.82;1.60;;;8.40;99.90;;;;;;5015244;28;20093;-86
2022/12/27 13:47:34;;;;;;;5.80;1.33;;;8.40;99.90;;;;;;5013787;28;20069;-85
2022/12/27 13:50:30;;;;;;;5.25;1.42;;;8.40;99.90;;;;;;5011602;28;20302;-84
2022/12/27 13:53:14;;;;;;;6.93;1.95;;;8.30;99.90;;;;;;5013390;28;20073;-84
2022/12/27 13:55:43;;;;;;;7.57;1.60;;;8.20;99.90;;;;;;4996396;28;20034;-85
2022/12/27 13:58:47;;;;;;;6.03;1.52;;;8.10;99.90;;;;;;5019511;28;20041;-84
2022/12/27 14:01:28;;;;;;;6.38;1.58;;;8.10;99.90;;;;;;5019106;28;20133;-84
2022/12/27 14:04:12;;;;;;;5.15;1.60;;;8.00;99.90;;;;;;4996167;28;20053;-85
2022/12/27 14:07:02;;;;;;;9.63;2.33;;;8.00;99.90;;;;;;5016475;28;20040;-84
2022/12/27 14:09:49;;;;;;;8.52;2.30;;;8.00;99.90;;;;;;5020479;28;20117;-84
2022/12/27 14:12:44;;;;;;;8.43;1.87;;;7.90;99.90;;;;;;5001104;28;20042;-84
2022/12/27 14:15:18;;;;;;;9.30;2.30;;;7.80;99.90;;;;;;5009232;28;20393;-85
2022/12/27 14:17:43;;;;;;;9.25;2.35;;;7.90;99.90;;;;;;4999961;28;20103;-84
2022/12/27 14:20:21;;;;;;;11.45;2.53;;;7.90;99.90;;;;;;5016629;28;20041;-84
2022/12/27 14:22:55;;;;;;;5.60;2.40;;;7.90;99.90;;;;;;4997644;28;20062;-84
2022/12/27 14:25:42;;;;;;;8.27;2.42;;;7.80;99.90;;;;;;5018448;28;20482;-86
2022/12/27 14:28:53;;;;;;;6.15;2.60;;;7.90;99.90;;;;;;5020323;28;20561;-84
2022/12/27 14:31:43;;;;;;;9.38;2.55;;;7.80;99.90;;;;;;5024538;28;20055;-84
2022/12/27 14:34:41;;;;;;;11.60;2.78;;;7.70;99.90;;;;;;5019495;28;20037;-85
2022/12/27 14:37:29;;;;;;;5.35;2.38;;;7.70;99.90;;;;;;5021371;28;20060;-85
2022/12/27 14:40:19;;;;;;;5.95;2.00;;;7.70;99.90;;;;;;5007473;28;20041;-85
2022/12/27 14:43:06;;;;;;;6.75;2.53;;;7.80;99.90;;;;;;5006634;28;20042;-85
2022/12/27 14:46:04;;;;;;;5.55;2.17;;;7.70;99.90;;;;;;5022015;28;20037;-85
2022/12/27 14:49:03;;;;;;;5.00;2.28;;;7.80;99.90;;;;;;5028098;28;20401;-85
2022/12/27 14:51:29;;;;;;;9.40;2.67;;;7.70;99.90;;;;;;5003542;28;20048;-85
2022/12/27 14:54:04;;;;;;;6.53;2.60;;;7.70;99.90;;;;;;5002211;28;20112;-85
2022/12/27 14:57:01;;;;;;;8.13;2.70;;;7.60;99.90;;;;;;5005159;28;20045;-85
2022/12/27 14:59:39;;;;;;;7.18;2.78;;;7.60;99.90;;;;;;5024528;28;20498;-85
2022/12/27 15:02:42;;;;;;;9.88;3.00;;;7.50;99.90;;;;;;4992506;28;20044;-85
2022/12/27 15:05:30;;;;;;;6.72;3.17;;;7.40;99.90;;;;;;5020277;28;20045;-86
2022/12/27 15:08:01;;;;;;;8.05;3.13;;;7.30;99.90;;;;;;5020332;28;20103;-86
2022/12/27 15:10:58;;;;;;;9.52;3.72;;;7.30;99.90;;;;;;5014278;28;20068;-85
2022/12/27 15:13:39;;;;;;;11.32;3.92;;;7.30;99.90;;;;;;5019358;28;20034;-85
2022/12/27 15:16:12;;;;;;;14.13;4.45;;;7.20;99.90;;;;;;5001996;28;20042;-85
2022/12/27 15:18:49;;;;;;;8.90;4.20;;;7.10;99.90;;;;;;5014532;28;20473;-84
2022/12/27 15:21:34;;;;;;;;;;;7.10;99.90;;;;;;5014282;28;20042;-85